createdAt,value
2022-08-29T00:01:40.411Z,17.30
2022-08-29T00:04:08.590Z,17.40
2022-08-29T00:06:36.649Z,17.70
2022-08-29T00:09:05.981Z,18.60
2022-08-29T00:11:34.111Z,18.80
2022-08-29T00:14:02.297Z,19.70
2022-08-29T00:16:30.372Z,23.70
2022-08-29T00:18:58.356Z,22.50
2022-08-29T00:21:26.296Z,22.80
2022-08-29T00:23:54.190Z,26.80
2022-08-29T00:26:23.473Z,27.00
2022-08-29T00:28:54.528Z,26.20
2022-08-29T00:31:22.525Z,27.20
2022-08-29T00:33:51.238Z,27.80
2022-08-29T00:36:19.189Z,32.00
2022-08-29T00:38:50.594Z,30.80
2022-08-29T00:41:18.607Z,31.50
2022-08-29T00:43:48.421Z,32.00
2022-08-29T00:46:54.572Z,37.00
2022-08-29T00:49:32.859Z,36.30
2022-08-29T00:52:03.422Z,38.20
2022-08-29T00:54:31.790Z,40.20
2022-08-29T00:56:59.996Z,45.70
2022-08-29T00:59:33.972Z,44.30
2022-08-29T01:02:03.858Z,45.40
2022-08-29T01:04:32.344Z,49.10
2022-08-29T01:07:00.952Z,49.10
2022-08-29T01:09:30.069Z,49.20
2022-08-29T01:12:15.519Z,51.50
2022-08-29T01:14:49.532Z,52.80
2022-08-29T01:17:20.910Z,54.10
2022-08-29T01:19:53.983Z,54.10
2022-08-29T01:22:36.607Z,56.00
2022-08-29T01:25:09.178Z,57.10
2022-08-29T01:27:41.336Z,59.50
2022-08-29T01:30:10.940Z,60.00
2022-08-29T01:32:38.822Z,61.20
2022-08-29T01:35:08.547Z,62.80
2022-08-29T01:37:39.253Z,63.70
2022-08-29T01:40:10.131Z,64.60
2022-08-29T01:42:38.081Z,66.90
2022-08-29T01:45:09.787Z,67.80
2022-08-29T01:47:39.947Z,68.20
2022-08-29T01:50:11.159Z,70.70
2022-08-29T01:52:39.366Z,71.20
2022-08-29T01:55:09.287Z,72.80
2022-08-29T01:57:38.664Z,74.30
2022-08-29T02:00:09.794Z,75.30
2022-08-29T02:02:38.302Z,76.40
2022-08-29T02:05:07.507Z,76.90
2022-08-29T02:07:35.445Z,77.60
2022-08-29T02:10:14.283Z,79.10
2022-08-29T02:12:43.745Z,80.50
2022-08-29T02:15:12.179Z,81.10
2022-08-29T02:17:40.075Z,82.80
2022-08-29T02:20:09.068Z,85.00
2022-08-29T02:22:38.331Z,84.90
2022-08-29T02:25:28.934Z,86.30
2022-08-29T02:27:59.001Z,89.90
2022-08-29T02:30:27.002Z,88.20
2022-08-29T02:32:55.083Z,92.10
2022-08-29T02:35:24.294Z,94.30
2022-08-29T02:37:52.383Z,95.30
2022-08-29T02:40:20.805Z,95.00
2022-08-29T02:43:01.501Z,93.80
2022-08-29T02:45:30.267Z,95.50
2022-08-29T02:47:58.543Z,97.40
2022-08-29T02:50:26.737Z,95.50
2022-08-29T02:52:54.881Z,95.30
2022-08-29T02:55:24.632Z,96.00
2022-08-29T02:57:53.456Z,95.70
2022-08-29T03:00:26.090Z,97.20
2022-08-29T03:02:55.167Z,97.00
2022-08-29T03:05:27.319Z,99.60
2022-08-29T03:07:55.426Z,98.30
2022-08-29T03:10:23.689Z,99.80
2022-08-29T03:12:52.546Z,99.70
2022-08-29T03:15:22.298Z,99.60
2022-08-29T03:17:50.638Z,99.90
2022-08-29T03:20:21.056Z,99.90
2022-08-29T03:22:49.957Z,99.90
2022-08-29T03:25:18.686Z,99.90
2022-08-29T03:27:46.652Z,99.90
2022-08-29T03:30:17.970Z,99.90
2022-08-29T03:32:48.336Z,99.90
2022-08-29T03:35:18.154Z,99.90
2022-08-29T03:37:46.242Z,99.90
2022-08-29T03:40:15.008Z,99.90
2022-08-29T03:42:43.843Z,99.90
2022-08-29T03:45:15.003Z,99.90
2022-08-29T03:47:43.398Z,99.90
2022-08-29T03:50:14.976Z,99.90
2022-08-29T03:52:44.208Z,99.90
2022-08-29T03:55:13.479Z,99.90
2022-08-29T03:57:41.691Z,99.90
2022-08-29T04:00:16.071Z,99.90
2022-08-29T04:02:46.550Z,99.90
2022-08-29T04:05:18.580Z,99.90
2022-08-29T04:07:50.100Z,99.90
2022-08-29T04:10:23.288Z,99.90
2022-08-29T04:12:54.727Z,99.90
2022-08-29T04:15:23.994Z,99.90
2022-08-29T04:17:54.555Z,99.90
2022-08-29T04:20:26.599Z,99.90
2022-08-29T04:22:58.602Z,99.90
2022-08-29T04:25:31.173Z,99.90
2022-08-29T04:28:00.843Z,99.90
2022-08-29T04:30:29.108Z,99.90
2022-08-29T04:32:57.288Z,99.90
2022-08-29T04:35:26.629Z,99.90
2022-08-29T04:37:54.651Z,99.90
2022-08-29T04:40:25.857Z,99.90
2022-08-29T04:42:53.973Z,99.90
2022-08-29T04:45:24.048Z,99.90
2022-08-29T04:50:23.537Z,99.90
2022-08-29T04:52:53.462Z,99.90
2022-08-29T04:55:25.755Z,99.90
2022-08-29T04:57:56.380Z,99.90
2022-08-29T05:00:28.612Z,99.90
2022-08-29T05:02:58.559Z,99.90
2022-08-29T05:05:26.886Z,99.90
2022-08-29T05:07:56.250Z,99.90
2022-08-29T05:10:26.343Z,99.90
2022-08-29T05:15:24.093Z,99.90
2022-08-29T05:17:53.216Z,99.90
2022-08-29T05:20:21.908Z,99.90
2022-08-29T05:22:49.994Z,99.90
2022-08-29T05:25:19.561Z,99.90
2022-08-29T05:27:47.911Z,99.90
2022-08-29T05:30:25.084Z,99.90
2022-08-29T05:33:03.061Z,99.90
2022-08-29T05:35:31.036Z,99.90
2022-08-29T05:37:59.205Z,99.90
2022-08-29T05:40:29.032Z,99.90
2022-08-29T05:42:57.179Z,99.90
2022-08-29T05:45:25.173Z,99.90
2022-08-29T05:47:53.168Z,96.10
2022-08-29T05:50:21.225Z,99.90
2022-08-29T05:52:49.223Z,94.40
2022-08-29T05:57:47.000Z,94.40
2022-08-29T06:00:15.829Z,92.80
2022-08-29T06:02:44.002Z,92.30
2022-08-29T06:05:12.217Z,90.10
2022-08-29T06:07:40.390Z,91.40
2022-08-29T06:10:09.153Z,88.70
2022-08-29T06:12:38.120Z,89.80
2022-08-29T06:15:08.938Z,90.40
2022-08-29T06:17:37.713Z,84.50
2022-08-29T06:20:09.792Z,90.50
2022-08-29T06:22:40.334Z,81.80
2022-08-29T06:25:35.029Z,84.60
2022-08-29T06:27:57.747Z,80.90
2022-08-29T06:30:27.352Z,69.80
2022-08-29T06:32:57.798Z,63.30
2022-08-29T06:35:25.801Z,68.30
2022-08-29T06:37:53.695Z,56.90
2022-08-29T06:40:21.686Z,52.00
2022-08-29T06:42:49.811Z,45.50
2022-08-29T06:45:18.016Z,42.10
2022-08-29T06:47:48.697Z,44.70
2022-08-29T06:50:17.454Z,43.50
2022-08-29T06:52:47.115Z,41.00
2022-08-29T06:55:15.680Z,36.60
2022-08-29T06:57:45.886Z,34.40
2022-08-29T07:00:22.472Z,31.80
2022-08-29T07:02:53.249Z,32.10
2022-08-29T07:05:21.614Z,29.50
2022-08-29T07:07:49.753Z,27.20
2022-08-29T07:10:22.259Z,24.40
2022-08-29T07:12:51.017Z,24.20
2022-08-29T07:15:19.485Z,24.30
2022-08-29T07:17:47.823Z,22.30
2022-08-29T07:20:18.406Z,20.30
2022-08-29T07:22:51.073Z,17.90
2022-08-29T07:25:20.839Z,19.00
2022-08-29T07:27:52.091Z,15.40
2022-08-29T07:30:22.803Z,16.30
2022-08-29T07:32:50.872Z,14.30
2022-08-29T07:35:30.078Z,13.60
2022-08-29T07:37:59.318Z,12.20
2022-08-29T07:40:27.354Z,9.00
2022-08-29T07:42:55.534Z,10.20
2022-08-29T07:45:23.614Z,8.80
2022-08-29T07:47:51.669Z,8.00
2022-08-29T07:50:21.148Z,6.90
2022-08-29T07:52:49.148Z,6.00
2022-08-29T07:55:18.019Z,4.90
2022-08-29T07:57:48.373Z,5.00
2022-08-29T08:00:16.649Z,3.40
2022-08-29T08:02:44.854Z,3.00
2022-08-29T08:05:12.894Z,1.70
2022-08-29T08:07:42.675Z,1.00
2022-08-29T08:10:11.725Z,1.00
2022-08-29T08:12:39.759Z,1.00
2022-08-29T08:15:08.388Z,1.00
2022-08-29T08:17:37.482Z,1.00
2022-08-29T08:20:08.777Z,1.00
2022-08-29T08:22:37.231Z,1.00
2022-08-29T08:25:07.741Z,4.00
2022-08-29T08:27:40.588Z,1.00
2022-08-29T08:30:12.438Z,1.00
2022-08-29T08:32:45.613Z,1.00
2022-08-29T08:35:16.112Z,1.00
2022-08-29T08:37:44.441Z,1.00
2022-08-29T08:40:22.206Z,1.00
2022-08-29T08:42:50.766Z,1.00
2022-08-29T08:45:20.272Z,1.00
2022-08-29T08:47:51.726Z,1.00
2022-08-29T08:50:26.145Z,1.00
2022-08-29T08:52:58.800Z,1.00
2022-08-29T08:55:35.730Z,1.00
2022-08-29T08:58:15.005Z,1.00
2022-08-29T09:00:46.323Z,1.00
2022-08-29T09:03:35.628Z,1.00
2022-08-29T09:06:15.758Z,1.00
2022-08-29T09:08:56.427Z,1.00
2022-08-29T09:11:37.063Z,1.00
2022-08-29T09:14:14.851Z,1.00
2022-08-29T09:16:47.532Z,1.00
2022-08-29T09:19:17.246Z,1.00
2022-08-29T09:21:52.004Z,1.00
2022-08-29T09:24:29.557Z,1.00
2022-08-29T09:26:59.033Z,1.00
2022-08-29T09:29:30.399Z,1.00
2022-08-29T09:32:08.348Z,1.00
2022-08-29T09:35:04.537Z,1.00
2022-08-29T09:37:29.913Z,1.00
2022-08-29T09:40:02.472Z,1.00
2022-08-29T09:42:35.388Z,1.00
2022-08-29T09:45:05.803Z,1.00
2022-08-29T09:47:34.478Z,1.00
2022-08-29T09:50:14.128Z,1.00
2022-08-29T09:52:52.388Z,1.00
2022-08-29T09:55:24.706Z,1.00
2022-08-29T09:57:58.344Z,1.00
2022-08-29T10:00:29.894Z,1.00
2022-08-29T10:03:01.505Z,1.00
2022-08-29T10:05:42.413Z,1.00
2022-08-29T10:08:27.986Z,1.00
2022-08-29T10:10:59.533Z,1.00
2022-08-29T10:13:38.829Z,1.00
2022-08-29T10:16:16.465Z,1.00
2022-08-29T10:18:49.333Z,1.00
2022-08-29T10:21:20.311Z,1.00
2022-08-29T10:24:27.171Z,1.00
2022-08-29T10:27:04.734Z,1.00
2022-08-29T10:29:52.492Z,1.00
2022-08-29T10:32:33.710Z,1.00
2022-08-29T10:35:10.309Z,1.00
2022-08-29T10:37:48.752Z,1.00
2022-08-29T10:40:26.642Z,1.00
2022-08-29T10:43:16.393Z,1.00
2022-08-29T10:45:58.027Z,1.00
2022-08-29T10:48:31.478Z,1.00
2022-08-29T10:51:14.649Z,1.00
2022-08-29T10:53:50.228Z,1.00
2022-08-29T10:56:21.509Z,1.00
2022-08-29T10:59:00.615Z,1.00
2022-08-29T11:01:33.431Z,1.00
2022-08-29T11:04:17.436Z,1.00
2022-08-29T11:06:53.289Z,1.00
2022-08-29T11:09:26.324Z,1.00
2022-08-29T11:12:06.928Z,1.00
2022-08-29T11:14:40.216Z,1.00
2022-08-29T11:17:14.656Z,1.00
2022-08-29T11:19:53.232Z,1.00
2022-08-29T11:22:24.952Z,1.00
2022-08-29T11:25:02.198Z,1.00
2022-08-29T11:27:38.567Z,1.00
2022-08-29T11:30:11.115Z,1.00
2022-08-29T11:32:48.590Z,1.00
2022-08-29T11:35:22.698Z,1.00
2022-08-29T11:38:24.153Z,1.00
2022-08-29T11:44:04.362Z,1.00
2022-08-29T11:46:38.780Z,1.00
2022-08-29T11:49:38.741Z,1.00
2022-08-29T11:52:26.166Z,1.00
2022-08-29T11:55:16.097Z,1.00
2022-08-29T11:58:04.628Z,1.00
2022-08-29T12:00:49.050Z,1.00
2022-08-29T12:03:45.630Z,1.00
2022-08-29T12:06:38.912Z,1.00
2022-08-29T12:09:20.181Z,1.00
2022-08-29T12:12:18.469Z,1.00
2022-08-29T12:14:48.555Z,1.00
2022-08-29T12:18:04.131Z,1.00
2022-08-29T12:20:50.644Z,1.00
2022-08-29T12:23:24.020Z,1.00
2022-08-29T12:28:47.898Z,1.00
2022-08-29T12:32:08.537Z,1.00
2022-08-29T12:34:49.889Z,1.00
2022-08-29T12:37:32.895Z,1.00
2022-08-29T12:40:08.401Z,1.00
2022-08-29T12:42:47.409Z,1.00
2022-08-29T12:45:23.979Z,1.00
2022-08-29T12:47:55.564Z,1.00
2022-08-29T12:50:26.429Z,1.00
2022-08-29T12:53:03.481Z,1.00
2022-08-29T12:55:39.862Z,1.00
2022-08-29T12:58:08.275Z,1.00
2022-08-29T13:00:36.300Z,1.00
2022-08-29T13:03:09.636Z,1.00
2022-08-29T13:05:43.507Z,1.00
2022-08-29T13:08:13.967Z,1.00
2022-08-29T13:10:58.158Z,1.00
2022-08-29T13:13:27.215Z,1.00
2022-08-29T13:15:57.713Z,1.00
2022-08-29T13:18:25.821Z,1.00
2022-08-29T13:21:08.781Z,1.00
2022-08-29T13:23:45.699Z,1.00
2022-08-29T13:26:23.046Z,1.00
2022-08-29T13:28:53.489Z,1.00
2022-08-29T13:31:30.506Z,1.00
2022-08-29T13:34:20.644Z,1.00
2022-08-29T13:36:58.939Z,1.00
2022-08-29T13:39:45.802Z,1.00
2022-08-29T13:42:29.083Z,1.00
2022-08-29T13:45:15.073Z,1.00
2022-08-29T13:47:51.743Z,1.00
2022-08-29T13:50:20.134Z,1.00
2022-08-29T13:52:51.861Z,1.00
2022-08-29T13:55:20.658Z,1.00
2022-08-29T13:57:52.414Z,1.00
2022-08-29T14:00:27.256Z,1.00
2022-08-29T14:03:01.637Z,1.00
2022-08-29T14:05:30.152Z,99.90
2022-08-29T14:07:58.266Z,99.90
2022-08-29T14:10:26.276Z,99.90
2022-08-29T14:12:55.751Z,99.90
2022-08-29T14:15:23.783Z,99.90
2022-08-29T14:17:51.880Z,99.90
2022-08-29T14:20:20.426Z,99.90
2022-08-29T14:22:48.787Z,99.90
2022-08-29T14:25:19.304Z,99.90
2022-08-29T14:27:48.378Z,99.90
2022-08-29T14:30:20.997Z,99.90
2022-08-29T14:32:49.059Z,99.90
2022-08-29T14:35:26.494Z,99.90
2022-08-29T14:37:59.801Z,99.90
2022-08-29T14:40:29.330Z,99.90
2022-08-29T14:42:57.697Z,99.90
2022-08-29T14:45:27.226Z,99.90
2022-08-29T14:47:55.620Z,99.90
2022-08-29T14:50:24.737Z,99.90
2022-08-29T14:52:52.928Z,99.90
2022-08-29T14:55:22.268Z,99.90
2022-08-29T14:57:50.739Z,99.90
2022-08-29T15:00:21.229Z,99.90
2022-08-29T15:02:51.078Z,99.90
2022-08-29T15:05:20.036Z,99.90
2022-08-29T15:07:48.215Z,99.90
2022-08-29T15:10:18.711Z,99.90
2022-08-29T15:12:46.819Z,99.90
2022-08-29T15:15:14.999Z,99.90
2022-08-29T15:17:44.058Z,99.90
2022-08-29T15:20:35.604Z,99.90
2022-08-29T15:23:03.617Z,99.90
2022-08-29T15:25:31.892Z,99.90
2022-08-29T15:27:59.975Z,99.90
2022-08-29T15:30:27.918Z,99.90
2022-08-29T15:32:55.962Z,99.90
2022-08-29T15:35:25.397Z,99.90
2022-08-29T15:37:54.375Z,99.90
2022-08-29T15:40:23.252Z,99.90
2022-08-29T15:42:51.570Z,99.90
2022-08-29T15:45:19.585Z,95.60
2022-08-29T15:47:51.244Z,93.70
2022-08-29T15:50:22.876Z,77.60
2022-08-29T15:52:52.329Z,69.70
2022-08-29T15:55:20.356Z,95.10
2022-08-29T15:57:52.166Z,84.40
2022-08-29T16:00:30.080Z,85.70
2022-08-29T16:03:00.559Z,78.10
2022-08-29T16:05:28.977Z,79.00
2022-08-29T16:07:58.299Z,75.80
2022-08-29T16:10:26.301Z,69.80
2022-08-29T16:12:54.407Z,69.20
2022-08-29T16:15:23.066Z,71.80
2022-08-29T16:17:51.372Z,53.40
2022-08-29T16:20:19.522Z,47.10
2022-08-29T16:22:47.582Z,39.70
2022-08-29T16:25:17.226Z,45.00
2022-08-29T16:27:45.251Z,40.40
2022-08-29T16:30:13.639Z,23.80
2022-08-29T16:32:42.057Z,24.40
2022-08-29T16:35:11.883Z,17.00
2022-08-29T16:37:40.207Z,16.50
2022-08-29T16:40:09.529Z,9.50
2022-08-29T16:42:39.479Z,6.80
2022-08-29T16:45:09.711Z,4.70
2022-08-29T16:47:38.191Z,11.00
2022-08-29T16:50:08.408Z,8.60
2022-08-29T16:52:36.367Z,9.10
2022-08-29T16:55:05.615Z,38.20
2022-08-29T16:57:33.509Z,10.90
2022-08-29T17:00:03.381Z,12.00
2022-08-29T17:02:31.386Z,14.30
2022-08-29T17:05:00.942Z,11.70
2022-08-29T17:07:36.879Z,16.00
2022-08-29T17:10:04.955Z,44.20
2022-08-29T17:12:31.748Z,10.40
2022-08-29T17:14:58.741Z,9.50
2022-08-29T17:17:28.421Z,16.40
2022-08-29T17:19:56.424Z,14.10
2022-08-29T17:22:25.026Z,12.50
2022-08-29T17:24:53.111Z,5.00
2022-08-29T17:27:22.717Z,10.50
2022-08-29T17:29:51.976Z,9.20
2022-08-29T17:32:20.009Z,11.30
2022-08-29T17:34:50.311Z,5.50
2022-08-29T17:37:18.498Z,10.00
2022-08-29T17:39:46.633Z,47.70
2022-08-29T17:42:14.712Z,13.30
2022-08-29T17:44:43.002Z,9.80
2022-08-29T17:47:12.072Z,15.10
2022-08-29T17:49:40.221Z,12.30
2022-08-29T17:52:10.181Z,43.80
2022-08-29T17:54:38.241Z,14.20
2022-08-29T17:57:06.715Z,49.50
2022-08-29T17:59:36.925Z,17.40
2022-08-29T18:02:06.234Z,20.10
2022-08-29T18:04:34.540Z,50.50
2022-08-29T18:07:02.916Z,21.10
2022-08-29T18:09:32.425Z,24.70
2022-08-29T18:12:00.463Z,28.20
2022-08-29T18:14:29.334Z,56.30
2022-08-29T18:16:57.837Z,24.20
2022-08-29T18:19:26.973Z,20.90
2022-08-29T18:21:55.434Z,25.40
2022-08-29T18:24:23.924Z,31.50
2022-08-29T18:26:53.588Z,27.90
2022-08-29T18:29:21.770Z,30.20
2022-08-29T18:31:50.102Z,33.00
2022-08-29T18:34:18.413Z,36.90
2022-08-29T18:36:49.730Z,33.70
2022-08-29T18:39:18.913Z,76.50
2022-08-29T18:41:48.793Z,39.00
2022-08-29T18:44:20.330Z,36.70
2022-08-29T18:46:52.691Z,77.90
2022-08-29T18:49:42.833Z,76.50
2022-08-29T18:54:40.092Z,86.00
2022-08-29T18:57:11.963Z,89.00
2022-08-29T18:59:42.528Z,46.20
2022-08-29T19:02:11.856Z,43.20
2022-08-29T19:04:41.392Z,92.20
2022-08-29T19:07:09.665Z,56.40
2022-08-29T19:09:37.694Z,54.00
2022-08-29T19:12:06.349Z,49.00
2022-08-29T19:14:45.811Z,57.80
2022-08-29T19:17:15.571Z,57.80
2022-08-29T19:20:01.269Z,65.40
2022-08-29T19:22:29.416Z,59.40
2022-08-29T19:24:57.416Z,65.00
2022-08-29T19:27:42.310Z,69.20
2022-08-29T19:30:14.487Z,69.30
2022-08-29T19:32:43.888Z,86.00
2022-08-29T19:35:12.897Z,99.90
2022-08-29T19:37:41.629Z,79.40
2022-08-29T19:40:12.038Z,79.90
2022-08-29T19:42:40.321Z,99.90
2022-08-29T19:45:11.172Z,99.90
2022-08-29T19:47:40.073Z,90.80
2022-08-29T19:50:11.825Z,92.80
2022-08-29T19:52:39.965Z,99.90
2022-08-29T19:55:13.876Z,89.70
2022-08-29T19:57:42.574Z,93.30
2022-08-29T20:00:14.017Z,99.90
2022-08-29T20:02:43.364Z,98.90
2022-08-29T20:05:15.961Z,97.30
2022-08-29T20:07:45.646Z,97.10
2022-08-29T20:10:17.676Z,96.70
2022-08-29T20:12:50.127Z,99.90
2022-08-29T20:15:20.000Z,98.50
2022-08-29T20:17:48.786Z,96.90
2022-08-29T20:20:22.309Z,99.90
2022-08-29T20:22:50.851Z,99.90
2022-08-29T20:25:19.269Z,99.90
2022-08-29T20:27:47.709Z,99.90
2022-08-29T20:30:19.061Z,99.90
2022-08-29T20:32:49.492Z,99.90
2022-08-29T20:35:39.449Z,99.90
2022-08-29T20:38:06.894Z,99.90
2022-08-29T20:40:37.725Z,99.90
2022-08-29T20:43:06.154Z,99.90
2022-08-29T20:45:34.487Z,99.90
2022-08-29T20:48:02.460Z,99.90
2022-08-29T20:50:32.097Z,99.90
2022-08-29T20:53:00.179Z,99.90
2022-08-29T20:55:28.209Z,99.90
2022-08-29T20:57:56.149Z,99.90
2022-08-29T21:00:24.253Z,99.90
2022-08-29T21:03:09.452Z,99.90
2022-08-29T21:05:39.641Z,99.90
2022-08-29T21:08:08.327Z,99.90
2022-08-29T21:10:36.905Z,99.90
2022-08-29T21:13:05.625Z,99.90
2022-08-29T21:15:33.917Z,99.90
2022-08-29T21:18:02.417Z,99.90
2022-08-29T21:20:31.064Z,99.90
2022-08-29T21:23:03.793Z,99.90
2022-08-29T21:25:32.213Z,99.90
2022-08-29T21:28:00.273Z,99.90
2022-08-29T21:30:30.021Z,99.90
2022-08-29T21:32:58.330Z,99.90
2022-08-29T21:35:26.527Z,99.90
2022-08-29T21:37:54.692Z,99.90
2022-08-29T21:40:26.011Z,99.90
2022-08-29T21:42:55.768Z,99.90
2022-08-29T21:45:24.287Z,99.90
2022-08-29T21:47:53.531Z,99.90
2022-08-29T21:50:22.143Z,99.90
2022-08-29T21:52:50.568Z,99.90
2022-08-29T21:55:19.762Z,99.90
2022-08-29T21:57:51.600Z,99.90
2022-08-29T22:00:20.909Z,99.90
2022-08-29T22:02:49.486Z,99.90
2022-08-29T22:05:17.923Z,99.90
2022-08-29T22:07:46.281Z,99.90
2022-08-29T22:10:15.918Z,99.90
2022-08-29T22:12:44.139Z,99.90
2022-08-29T22:15:32.182Z,99.90
2022-08-29T22:18:00.243Z,99.90
2022-08-29T22:20:28.505Z,99.90
2022-08-29T22:22:59.482Z,99.90
2022-08-29T22:25:27.605Z,99.90
2022-08-29T22:27:55.571Z,99.90
2022-08-29T22:30:32.111Z,99.90
2022-08-29T22:33:00.684Z,99.90
2022-08-29T22:35:29.310Z,99.90
2022-08-29T22:37:57.180Z,99.90
2022-08-29T22:40:26.094Z,99.90
2022-08-29T22:42:54.355Z,99.90
2022-08-29T22:45:23.573Z,99.90
2022-08-29T22:47:52.894Z,99.90
2022-08-29T22:50:22.952Z,99.90
2022-08-29T22:52:52.163Z,99.90
2022-08-29T22:57:49.526Z,99.90
2022-08-29T23:00:20.216Z,99.90
2022-08-29T23:02:48.487Z,99.90
2022-08-29T23:05:19.173Z,99.90
2022-08-29T23:07:47.962Z,99.90
2022-08-29T23:10:16.690Z,99.90
2022-08-29T23:12:44.647Z,99.90
2022-08-29T23:15:16.841Z,99.90
2022-08-29T23:17:45.836Z,99.90
2022-08-29T23:20:15.031Z,99.90
2022-08-29T23:22:45.144Z,99.90
2022-08-29T23:25:14.078Z,1.00
2022-08-29T23:27:42.104Z,1.00
2022-08-29T23:30:12.962Z,1.00
2022-08-29T23:32:41.065Z,1.00
2022-08-29T23:35:09.762Z,1.00
2022-08-29T23:37:37.678Z,1.00
2022-08-29T23:40:08.167Z,1.00
2022-08-29T23:42:36.585Z,1.00
2022-08-29T23:45:05.458Z,1.00
2022-08-29T23:47:33.401Z,1.00
2022-08-29T23:50:03.416Z,1.00
2022-08-29T23:52:31.484Z,1.00
2022-08-29T23:55:00.681Z,1.00
2022-08-29T23:57:30.008Z,1.00
